createdAt,value
2019-04-20T00:02:04.464Z,14.50
2019-04-20T00:04:33.690Z,14.50
2019-04-20T00:07:01.832Z,14.50
2019-04-20T00:09:36.573Z,14.50
2019-04-20T00:12:12.103Z,14.50
2019-04-20T00:14:37.125Z,14.50
2019-04-20T00:17:05.236Z,14.50
2019-04-20T00:19:40.730Z,14.60
2019-04-20T00:22:14.910Z,14.60
2019-04-20T00:24:55.615Z,14.60
2019-04-20T00:27:42.785Z,14.60
2019-04-20T00:30:06.803Z,14.60
2019-04-20T00:32:42.607Z,14.60
2019-04-20T00:34:57.971Z,14.60
2019-04-20T00:37:27.765Z,14.60
2019-04-20T00:39:57.815Z,14.60
2019-04-20T00:42:33.885Z,14.60
2019-04-20T00:45:07.997Z,14.50
2019-04-20T00:47:44.648Z,14.60
2019-04-20T00:50:19.854Z,14.50
2019-04-20T00:52:51.328Z,14.50
2019-04-20T00:55:04.123Z,14.40
2019-04-20T00:57:41.787Z,14.40
2019-04-20T01:00:21.940Z,14.40
2019-04-20T01:02:49.283Z,14.40
2019-04-20T01:05:36.986Z,14.40
2019-04-20T01:08:02.146Z,14.40
2019-04-20T01:10:40.174Z,14.30
2019-04-20T01:13:10.820Z,14.30
2019-04-20T01:15:46.301Z,14.30
2019-04-20T01:18:05.133Z,14.20
2019-04-20T01:20:34.974Z,14.20
2019-04-20T01:23:10.094Z,14.20
2019-04-20T01:25:40.229Z,14.20
2019-04-20T01:28:24.199Z,14.10
2019-04-20T01:30:43.192Z,14.10
2019-04-20T01:33:22.631Z,14.10
2019-04-20T01:35:57.132Z,14.00
2019-04-20T01:38:26.296Z,14.00
2019-04-20T01:40:44.401Z,14.00
2019-04-20T01:43:14.250Z,14.00
2019-04-20T01:45:44.400Z,14.00
2019-04-20T01:48:22.043Z,14.00
2019-04-20T01:50:55.017Z,14.00
2019-04-20T01:53:39.284Z,13.90
2019-04-20T01:56:07.289Z,13.90
2019-04-20T01:58:50.652Z,13.90
2019-04-20T02:04:29.724Z,13.90
2019-04-20T02:06:59.913Z,13.80
2019-04-20T02:09:30.637Z,13.80
2019-04-20T02:12:06.946Z,13.80
2019-04-20T02:14:40.313Z,13.80
2019-04-20T02:17:30.076Z,13.80
2019-04-20T02:20:12.560Z,13.80
2019-04-20T02:22:45.124Z,13.80
2019-04-20T02:24:55.034Z,13.80
2019-04-20T02:27:31.347Z,13.80
2019-04-20T02:30:21.791Z,13.80
2019-04-20T02:33:07.481Z,13.80
2019-04-20T02:35:56.476Z,13.70
2019-04-20T02:38:23.487Z,13.60
2019-04-20T02:43:52.701Z,13.50
2019-04-20T02:45:51.041Z,13.40
2019-04-20T02:48:29.791Z,13.30
2019-04-20T02:50:58.991Z,13.20
2019-04-20T02:56:03.865Z,13.10
2019-04-20T02:58:38.214Z,13.00
2019-04-20T03:00:58.675Z,13.00
2019-04-20T03:03:19.507Z,12.90
2019-04-20T03:05:46.126Z,12.80
2019-04-20T03:08:22.391Z,12.80
2019-04-20T03:11:11.725Z,12.70
2019-04-20T03:13:32.264Z,12.60
2019-04-20T03:16:02.260Z,12.50
2019-04-20T03:18:33.823Z,12.40
2019-04-20T03:21:09.655Z,12.30
2019-04-20T03:23:44.443Z,12.20
2019-04-20T03:26:12.167Z,12.10
2019-04-20T03:29:05.365Z,12.10
2019-04-20T03:32:15.040Z,12.00
2019-04-20T03:34:47.421Z,11.90
2019-04-20T03:37:01.994Z,11.90
2019-04-20T03:39:25.592Z,11.80
2019-04-20T03:41:40.548Z,11.80
2019-04-20T03:44:10.541Z,11.70
2019-04-20T03:46:43.481Z,11.60
2019-04-20T03:49:35.217Z,11.60
2019-04-20T03:52:02.683Z,11.50
2019-04-20T03:54:30.803Z,11.50
2019-04-20T03:57:24.776Z,11.40
2019-04-20T03:59:55.023Z,11.30
2019-04-20T04:03:00.429Z,11.30
2019-04-20T04:05:25.020Z,11.30
2019-04-20T04:07:45.319Z,11.20
2019-04-20T04:10:24.936Z,11.20
2019-04-20T04:13:09.525Z,11.20
2019-04-20T04:15:46.773Z,11.10
2019-04-20T04:18:19.142Z,11.10
2019-04-20T04:20:50.078Z,11.10
2019-04-20T04:23:32.635Z,11.00
2019-04-20T04:26:05.998Z,10.90
2019-04-20T04:28:31.074Z,10.90
2019-04-20T04:31:08.420Z,10.90
2019-04-20T04:36:04.857Z,11.00
2019-04-20T04:38:43.448Z,11.00
2019-04-20T04:41:19.974Z,11.00
2019-04-20T04:43:44.084Z,11.10
2019-04-20T04:45:57.330Z,11.10
2019-04-20T04:48:34.422Z,11.10
2019-04-20T04:51:07.052Z,11.10
2019-04-20T04:53:44.267Z,11.10
2019-04-20T04:56:07.186Z,11.20
2019-04-20T04:58:34.581Z,11.20
2019-04-20T05:01:08.309Z,11.30
2019-04-20T05:04:04.987Z,11.30
2019-04-20T05:06:29.130Z,11.30
2019-04-20T05:08:48.932Z,11.40
2019-04-20T05:11:15.200Z,11.40
2019-04-20T05:13:54.663Z,11.50
2019-04-20T05:16:38.484Z,11.50
2019-04-20T05:19:13.332Z,11.50
2019-04-20T05:21:58.709Z,11.50
2019-04-20T05:25:04.685Z,11.60
2019-04-20T05:27:39.122Z,11.60
2019-04-20T05:29:52.883Z,11.60
2019-04-20T05:32:33.731Z,11.70
2019-04-20T05:35:15.108Z,11.70
2019-04-20T05:37:51.320Z,11.70
2019-04-20T05:40:16.538Z,11.70
2019-04-20T05:43:04.727Z,11.70
2019-04-20T05:45:32.330Z,11.80
2019-04-20T05:48:04.567Z,11.80
2019-04-20T05:50:37.534Z,11.90
2019-04-20T05:53:11.638Z,11.90
2019-04-20T05:55:40.031Z,11.90
2019-04-20T05:58:12.234Z,12.00
2019-04-20T06:00:47.754Z,12.00
2019-04-20T06:03:10.804Z,12.00
2019-04-20T06:05:55.521Z,12.10
2019-04-20T06:08:26.423Z,12.20
2019-04-20T06:10:49.445Z,12.20
2019-04-20T06:13:30.204Z,12.30
2019-04-20T06:16:15.696Z,12.30
2019-04-20T06:18:42.276Z,12.40
2019-04-20T06:21:35.476Z,12.50
2019-04-20T06:24:02.610Z,12.60
2019-04-20T06:26:47.074Z,12.60
2019-04-20T06:29:18.378Z,12.70
2019-04-20T06:31:57.990Z,12.80
2019-04-20T06:34:33.358Z,12.90
2019-04-20T06:36:57.354Z,13.00
2019-04-20T06:42:10.824Z,13.20
2019-04-20T06:44:37.015Z,13.30
2019-04-20T06:47:16.455Z,13.40
2019-04-20T06:49:51.585Z,13.50
2019-04-20T06:52:33.508Z,13.60
2019-04-20T06:55:03.384Z,13.70
2019-04-20T06:57:40.573Z,13.80
2019-04-20T07:02:46.814Z,14.00
2019-04-20T07:05:28.682Z,14.00
2019-04-20T07:07:47.972Z,14.20
2019-04-20T07:10:18.318Z,14.30
2019-04-20T07:12:40.863Z,14.50
2019-04-20T07:15:17.737Z,14.60
2019-04-20T07:17:57.551Z,14.70
2019-04-20T07:20:42.080Z,14.80
2019-04-20T07:23:18.433Z,14.90
2019-04-20T07:25:39.050Z,15.00
2019-04-20T07:28:14.458Z,15.00
2019-04-20T07:30:42.330Z,15.20
2019-04-20T07:33:12.664Z,15.20
2019-04-20T07:35:40.532Z,15.40
2019-04-20T07:38:27.946Z,15.50
2019-04-20T07:40:44.469Z,15.60
2019-04-20T07:43:07.938Z,15.80
2019-04-20T07:45:45.948Z,15.70
2019-04-20T07:48:29.523Z,16.00
2019-04-20T07:50:41.035Z,16.10
2019-04-20T07:53:18.572Z,16.20
2019-04-20T07:55:55.131Z,16.30
2019-04-20T07:58:17.283Z,16.40
2019-04-20T08:01:15.408Z,16.50
2019-04-20T08:03:38.066Z,16.60
2019-04-20T08:06:14.519Z,16.70
2019-04-20T08:08:53.073Z,16.80
2019-04-20T08:11:22.864Z,16.90
2019-04-20T08:14:05.896Z,17.00
2019-04-20T08:16:40.034Z,17.00
2019-04-20T08:19:01.262Z,17.10
2019-04-20T08:21:38.735Z,17.10
2019-04-20T08:24:07.386Z,17.20
2019-04-20T08:26:27.163Z,17.30
2019-04-20T08:29:01.395Z,17.50
2019-04-20T08:31:47.403Z,17.60
2019-04-20T08:34:33.683Z,17.70
2019-04-20T08:37:03.262Z,17.80
2019-04-20T08:42:18.646Z,18.10
2019-04-20T08:47:12.090Z,18.30
2019-04-20T08:49:43.873Z,18.30
2019-04-20T08:52:31.918Z,18.40
2019-04-20T08:54:40.473Z,18.40
2019-04-20T08:56:58.046Z,18.50
2019-04-20T08:59:25.366Z,18.50
2019-04-20T09:01:58.972Z,18.60
2019-04-20T09:04:38.809Z,18.70
2019-04-20T09:07:05.601Z,18.70
2019-04-20T09:09:49.165Z,18.80
2019-04-20T09:12:14.765Z,18.80
2019-04-20T09:14:34.751Z,18.90
2019-04-20T09:17:10.626Z,19.00
2019-04-20T09:19:53.573Z,19.00
2019-04-20T09:22:45.675Z,19.10
2019-04-20T09:25:42.716Z,19.10
2019-04-20T09:27:46.788Z,19.00
2019-04-20T09:30:25.705Z,19.10
2019-04-20T09:33:06.843Z,19.10
2019-04-20T09:35:37.129Z,19.10
2019-04-20T09:38:11.832Z,19.20
2019-04-20T09:40:46.153Z,19.20
2019-04-20T09:43:25.845Z,19.20
2019-04-20T09:46:00.028Z,19.20
2019-04-20T09:48:34.729Z,19.30
2019-04-20T09:51:20.522Z,19.40
2019-04-20T09:53:39.325Z,19.50
2019-04-20T09:56:15.754Z,19.50
2019-04-20T09:58:55.145Z,19.60
2019-04-20T10:01:18.149Z,19.80
2019-04-20T10:03:35.067Z,19.80
2019-04-20T10:06:05.488Z,19.90
2019-04-20T10:08:42.057Z,20.00
2019-04-20T10:11:07.647Z,20.10
2019-04-20T10:13:38.345Z,20.20
2019-04-20T10:16:08.090Z,20.30
2019-04-20T10:18:41.410Z,20.30
2019-04-20T10:21:10.106Z,20.40
2019-04-20T10:23:40.676Z,20.40
2019-04-20T10:26:10.383Z,20.40
2019-04-20T10:28:39.813Z,20.50
2019-04-20T10:31:10.570Z,20.50
2019-04-20T10:33:40.205Z,20.50
2019-04-20T10:36:19.518Z,20.50
2019-04-20T10:38:48.942Z,20.40
2019-04-20T10:41:29.584Z,20.50
2019-04-20T10:43:51.006Z,20.50
2019-04-20T10:46:20.767Z,20.50
2019-04-20T10:48:53.247Z,20.50
2019-04-20T10:51:21.787Z,20.50
2019-04-20T10:53:52.409Z,20.50
2019-04-20T10:56:23.208Z,20.50
2019-04-20T10:58:53.813Z,20.50
2019-04-20T11:01:23.405Z,20.50
2019-04-20T11:03:52.837Z,20.50
2019-04-20T11:06:22.719Z,20.50
2019-04-20T11:08:52.901Z,20.50
2019-04-20T11:11:26.474Z,20.50
2019-04-20T11:13:53.719Z,20.50
2019-04-20T11:16:24.267Z,20.60
2019-04-20T11:18:53.792Z,20.50
2019-04-20T11:21:24.612Z,20.50
2019-04-20T11:23:56.164Z,20.50
2019-04-20T11:26:26.455Z,20.50
2019-04-20T11:28:56.091Z,20.60
2019-04-20T11:31:32.868Z,20.50
2019-04-20T11:33:56.823Z,20.50
2019-04-20T11:36:27.427Z,20.40
2019-04-20T11:38:56.921Z,20.40
2019-04-20T11:41:29.463Z,20.40
2019-04-20T11:43:57.874Z,20.30
2019-04-20T11:46:27.353Z,20.30
2019-04-20T11:48:57.267Z,20.30
2019-04-20T11:51:27.574Z,20.20
2019-04-20T11:53:58.439Z,20.20
2019-04-20T11:56:33.459Z,20.20
2019-04-20T11:58:59.042Z,20.20
2019-04-20T12:01:59.059Z,20.20
2019-04-20T12:04:40.382Z,20.20
2019-04-20T12:07:01.686Z,20.20
2019-04-20T12:09:33.448Z,20.10
2019-04-20T12:12:16.777Z,20.10
2019-04-20T12:14:34.636Z,20.10
2019-04-20T12:17:04.184Z,20.10
2019-04-20T12:19:36.104Z,20.10
2019-04-20T12:22:05.831Z,20.10
2019-04-20T12:24:36.290Z,20.10
2019-04-20T12:27:07.008Z,20.10
2019-04-20T12:29:36.408Z,20.10
2019-04-20T12:32:08.572Z,20.10
2019-04-20T12:34:37.178Z,20.10
2019-04-20T12:37:07.145Z,20.10
2019-04-20T12:39:37.337Z,20.10
2019-04-20T12:42:09.618Z,20.10
2019-04-20T12:44:39.643Z,20.10
2019-04-20T12:47:28.198Z,20.10
2019-04-20T12:49:57.534Z,20.10
2019-04-20T12:52:28.215Z,20.10
2019-04-20T12:55:01.593Z,20.10
2019-04-20T12:57:30.039Z,20.10
2019-04-20T13:00:01.670Z,20.10
2019-04-20T13:02:31.503Z,20.10
2019-04-20T13:05:01.695Z,20.10
2019-04-20T13:07:41.162Z,20.10
2019-04-20T13:10:04.008Z,20.10
2019-04-20T13:12:56.440Z,20.10
2019-04-20T13:15:38.213Z,20.10
2019-04-20T13:18:09.493Z,20.10
2019-04-20T13:20:39.732Z,20.10
2019-04-20T13:23:10.851Z,20.20
2019-04-20T13:25:41.243Z,20.20
2019-04-20T13:28:10.746Z,20.20
2019-04-20T13:30:40.174Z,20.20
2019-04-20T13:33:12.084Z,20.10
2019-04-20T13:35:41.587Z,20.10
2019-04-20T13:38:12.296Z,20.10
2019-04-20T13:40:43.947Z,20.10
2019-04-20T13:43:14.608Z,20.10
2019-04-20T13:45:44.852Z,20.10
2019-04-20T13:48:15.122Z,20.10
2019-04-20T13:50:44.668Z,20.10
2019-04-20T13:53:14.946Z,20.10
2019-04-20T13:55:45.684Z,20.00
2019-04-20T13:58:33.863Z,20.00
2019-04-20T14:01:22.949Z,20.00
2019-04-20T14:04:05.238Z,20.00
2019-04-20T14:06:35.381Z,20.00
2019-04-20T14:09:09.605Z,19.90
2019-04-20T14:11:39.292Z,19.90
2019-04-20T14:14:08.919Z,19.90
2019-04-20T14:16:41.120Z,19.90
2019-04-20T14:19:11.767Z,19.90
2019-04-20T14:21:41.733Z,19.90
2019-04-20T14:24:13.067Z,19.90
2019-04-20T14:26:44.565Z,19.90
2019-04-20T14:29:14.811Z,19.90
2019-04-20T14:31:45.989Z,19.90
2019-04-20T14:34:15.539Z,19.80
2019-04-20T14:36:46.743Z,19.80
2019-04-20T14:39:16.369Z,19.80
2019-04-20T14:41:46.551Z,19.80
2019-04-20T14:44:16.562Z,19.80
2019-04-20T14:46:45.927Z,19.70
2019-04-20T14:49:16.628Z,19.70
2019-04-20T14:51:46.101Z,19.70
2019-04-20T14:54:17.073Z,19.70
2019-04-20T14:56:47.573Z,19.70
2019-04-20T14:59:31.559Z,19.70
2019-04-20T15:02:06.391Z,19.70
2019-04-20T15:04:37.083Z,19.70
2019-04-20T15:07:06.724Z,19.70
2019-04-20T15:09:38.752Z,19.70
2019-04-20T15:12:08.823Z,19.60
2019-04-20T15:14:38.657Z,19.60
2019-04-20T15:17:12.088Z,19.60
2019-04-20T15:20:01.443Z,19.60
2019-04-20T15:22:41.399Z,19.60
2019-04-20T15:25:11.733Z,19.60
2019-04-20T15:27:44.734Z,19.60
2019-04-20T15:30:14.136Z,19.60
2019-04-20T15:32:44.937Z,19.60
2019-04-20T15:35:17.820Z,19.50
2019-04-20T15:37:46.943Z,19.50
2019-04-20T15:40:17.282Z,19.50
2019-04-20T15:42:56.647Z,19.50
2019-04-20T15:45:19.230Z,19.50
2019-04-20T15:47:49.966Z,19.40
2019-04-20T15:50:20.230Z,19.50
2019-04-20T15:52:54.467Z,19.40
2019-04-20T15:55:29.604Z,19.40
2019-04-20T15:57:53.495Z,19.40
2019-04-20T16:00:24.475Z,19.30
2019-04-20T16:03:05.344Z,19.20
2019-04-20T16:06:01.042Z,19.20
2019-04-20T16:08:36.482Z,19.30
2019-04-20T16:11:06.995Z,19.20
2019-04-20T16:13:40.435Z,19.20
2019-04-20T16:16:09.797Z,19.20
2019-04-20T16:18:40.947Z,19.20
2019-04-20T16:21:17.830Z,19.20
2019-04-20T16:23:50.675Z,19.20
2019-04-20T16:26:44.010Z,19.20
2019-04-20T16:29:15.453Z,19.20
2019-04-20T16:31:47.221Z,19.10
2019-04-20T16:34:16.817Z,19.20
2019-04-20T16:36:46.629Z,19.10
2019-04-20T16:39:16.533Z,19.10
2019-04-20T16:41:46.557Z,19.10
2019-04-20T16:44:17.410Z,19.00
2019-04-20T16:46:48.069Z,19.10
2019-04-20T16:49:17.508Z,19.00
2019-04-20T16:51:47.153Z,19.00
2019-04-20T16:54:17.815Z,19.00
2019-04-20T16:56:48.552Z,19.00
2019-04-20T16:59:20.614Z,19.00
2019-04-20T17:01:49.077Z,19.00
2019-04-20T17:04:22.065Z,19.00
2019-04-20T17:07:08.118Z,19.00
2019-04-20T17:09:37.878Z,18.90
2019-04-20T17:12:07.824Z,18.90
2019-04-20T17:14:37.882Z,18.90
2019-04-20T17:17:07.783Z,18.80
2019-04-20T17:19:37.652Z,18.90
2019-04-20T17:22:09.864Z,18.80
2019-04-20T17:24:43.125Z,18.80
2019-04-20T17:27:33.014Z,18.80
2019-04-20T17:30:22.963Z,18.70
2019-04-20T17:32:52.568Z,18.70
2019-04-20T17:35:37.307Z,18.70
2019-04-20T17:38:14.245Z,18.60
2019-04-20T17:41:01.296Z,18.60
2019-04-20T17:43:25.130Z,18.50
2019-04-20T17:45:54.326Z,18.50
2019-04-20T17:48:33.285Z,18.40
2019-04-20T17:51:10.852Z,18.40
2019-04-20T17:53:47.381Z,18.30
2019-04-20T17:56:10.412Z,18.30
2019-04-20T17:58:41.439Z,18.30
2019-04-20T18:01:59.608Z,18.20
2019-04-20T18:04:50.711Z,18.20
2019-04-20T18:07:04.431Z,18.10
2019-04-20T18:09:44.737Z,18.10
2019-04-20T18:11:58.063Z,18.00
2019-04-20T18:14:43.318Z,18.00
2019-04-20T18:17:34.683Z,17.90
2019-04-20T18:20:00.857Z,17.90
2019-04-20T18:22:31.755Z,17.90
2019-04-20T18:25:19.168Z,17.80
2019-04-20T18:27:56.312Z,17.70
2019-04-20T18:30:18.676Z,17.70
2019-04-20T18:32:38.479Z,17.70
2019-04-20T18:35:16.264Z,17.60
2019-04-20T18:37:52.606Z,17.60
2019-04-20T18:40:29.045Z,17.60
2019-04-20T18:42:59.992Z,17.50
2019-04-20T18:45:33.734Z,17.50
2019-04-20T18:48:14.632Z,17.50
2019-04-20T18:50:31.947Z,17.50
2019-04-20T18:52:53.994Z,17.40
2019-04-20T18:55:37.712Z,17.40
2019-04-20T18:57:55.157Z,17.40
2019-04-20T19:00:31.573Z,17.30
2019-04-20T19:03:01.315Z,17.30
2019-04-20T19:05:29.486Z,17.30
2019-04-20T19:08:03.352Z,17.20
2019-04-20T19:10:34.842Z,17.20
2019-04-20T19:13:09.948Z,17.20
2019-04-20T19:16:03.595Z,17.20
2019-04-20T19:18:57.382Z,17.20
2019-04-20T19:21:13.304Z,17.10
2019-04-20T19:23:53.347Z,17.10
2019-04-20T19:26:19.137Z,17.10
2019-04-20T19:28:52.083Z,17.10
2019-04-20T19:31:35.519Z,17.10
2019-04-20T19:34:09.336Z,17.10
2019-04-20T19:36:28.815Z,17.10
2019-04-20T19:39:08.586Z,17.10
2019-04-20T19:41:32.084Z,17.10
2019-04-20T19:44:06.437Z,17.10
2019-04-20T19:46:49.218Z,17.10
2019-04-20T19:49:08.148Z,17.00
2019-04-20T19:51:49.402Z,17.10
2019-04-20T19:54:24.173Z,17.00
2019-04-20T19:56:48.610Z,17.10
2019-04-20T19:59:11.719Z,17.10
2019-04-20T20:01:35.724Z,17.10
2019-04-20T20:04:09.257Z,17.00
2019-04-20T20:06:45.351Z,17.10
2019-04-20T20:09:12.206Z,17.00
2019-04-20T20:11:42.908Z,17.10
2019-04-20T20:14:13.008Z,17.10
2019-04-20T20:17:00.864Z,17.10
2019-04-20T20:19:30.527Z,17.10
2019-04-20T20:22:00.278Z,17.00
2019-04-20T20:24:17.414Z,16.90
2019-04-20T20:26:52.711Z,17.00
2019-04-20T20:29:26.225Z,16.90
2019-04-20T20:32:02.293Z,16.90
2019-04-20T20:34:26.438Z,16.90
2019-04-20T20:36:55.961Z,16.90
2019-04-20T20:39:28.697Z,16.80
2019-04-20T20:42:01.587Z,16.80
2019-04-20T20:44:33.013Z,16.70
2019-04-20T20:47:05.546Z,16.70
2019-04-20T20:49:48.529Z,16.70
2019-04-20T20:52:17.400Z,16.70
2019-04-20T20:54:41.179Z,16.70
2019-04-20T20:57:05.643Z,16.60
2019-04-20T20:59:40.237Z,16.60
2019-04-20T21:02:08.838Z,16.60
2019-04-20T21:04:33.493Z,16.60
2019-04-20T21:07:02.916Z,16.50
2019-04-20T21:09:33.448Z,16.50
2019-04-20T21:12:08.480Z,16.50
2019-04-20T21:14:38.416Z,16.50
2019-04-20T21:17:13.184Z,16.50
2019-04-20T21:19:55.003Z,16.50
2019-04-20T21:22:15.075Z,16.50
2019-04-20T21:24:42.063Z,16.50
2019-04-20T21:27:15.282Z,16.50
2019-04-20T21:29:47.288Z,16.50
2019-04-20T21:32:16.543Z,16.50
2019-04-20T21:34:51.859Z,16.40
2019-04-20T21:37:22.337Z,16.40
2019-04-20T21:39:55.607Z,16.40
2019-04-20T21:42:22.677Z,16.40
2019-04-20T21:44:52.307Z,16.50
2019-04-20T21:47:27.466Z,16.40
2019-04-20T21:50:09.573Z,16.60
2019-04-20T21:52:32.342Z,16.50
2019-04-20T21:54:56.188Z,16.50
2019-04-20T21:57:26.222Z,16.40
2019-04-20T22:00:02.576Z,16.40
2019-04-20T22:02:32.832Z,16.50
2019-04-20T22:04:59.180Z,16.50
2019-04-20T22:07:28.560Z,16.50
2019-04-20T22:09:58.506Z,16.50
2019-04-20T22:12:37.585Z,16.60
2019-04-20T22:15:06.631Z,16.60
2019-04-20T22:17:33.047Z,16.60
2019-04-20T22:20:14.418Z,16.50
2019-04-20T22:22:50.807Z,16.50
2019-04-20T22:25:23.055Z,16.50
2019-04-20T22:27:36.705Z,16.50
2019-04-20T22:30:08.091Z,16.40
2019-04-20T22:32:45.016Z,16.40
2019-04-20T22:35:12.525Z,16.30
2019-04-20T22:37:47.679Z,16.30
2019-04-20T22:40:22.068Z,16.30
2019-04-20T22:42:54.319Z,16.30
2019-04-20T22:45:21.148Z,16.30
2019-04-20T22:47:52.967Z,16.30
2019-04-20T22:50:34.028Z,16.20
2019-04-20T22:53:06.751Z,16.20
2019-04-20T22:55:47.804Z,16.20
2019-04-20T22:58:03.269Z,16.20
2019-04-20T23:00:36.435Z,16.30
2019-04-20T23:02:58.804Z,16.40
2019-04-20T23:05:28.855Z,16.40
2019-04-20T23:07:58.957Z,16.40
2019-04-20T23:10:34.842Z,16.40
2019-04-20T23:12:59.807Z,16.40
2019-04-20T23:15:30.558Z,16.40
2019-04-20T23:18:00.127Z,16.40
2019-04-20T23:20:32.633Z,16.40
2019-04-20T23:23:00.878Z,16.40
2019-04-20T23:25:33.359Z,16.40
2019-04-20T23:28:09.869Z,16.40
2019-04-20T23:30:38.869Z,16.30
2019-04-20T23:33:05.803Z,16.30
2019-04-20T23:35:37.574Z,16.20
2019-04-20T23:38:11.025Z,16.20
2019-04-20T23:40:37.542Z,16.20
2019-04-20T23:43:22.916Z,16.20
2019-04-20T23:46:03.404Z,16.10
2019-04-20T23:48:42.715Z,16.10
2019-04-20T23:51:35.287Z,16.00
2019-04-20T23:53:53.952Z,16.00
2019-04-20T23:56:16.765Z,16.00
2019-04-20T23:58:49.572Z,15.90
